Time;durP1;ratioP1;P1;durP2;ratioP2;P2;SDS_P1;SDS_P2;PMS_P1;PMS_P2;Temp;Humidity;BMP_temperature;BMP_pressure;BME280_temperature;BME280_humidity;BME280_pressure;Samples;Min_cycle;Max_cycle;Signal;HPM_P1;HPM_P2
2020/12/11 00:00:38;;;;;;;;;;;27.00;42.60;;;;;;5033019;28;19925;-63
2020/12/11 00:03:03;;;;;;;;;;;26.90;42.80;;;;;;5033386;28;19910;-63
2020/12/11 00:05:28;;;;;;;;;;;26.90;42.70;;;;;;5033677;28;19999;-62
2020/12/11 00:07:54;;;;;;;;;;;26.90;42.70;;;;;;5014570;28;19921;-61
2020/12/11 00:10:19;;;;;;;;;;;26.90;42.80;;;;;;5014127;28;20344;-63
2020/12/11 00:12:50;;;;;;;;;;;26.90;42.60;;;;;;5024528;28;19978;-62
2020/12/11 00:15:16;;;;;;;;;;;26.90;42.50;;;;;;5033893;28;19924;-61
2020/12/11 00:17:41;;;;;;;;;;;26.90;42.50;;;;;;5033882;28;19913;-61
2020/12/11 00:20:07;;;;;;;;;;;26.90;42.50;;;;;;5033586;28;19920;-62
2020/12/11 00:22:32;;;;;;;;;;;27.00;42.50;;;;;;5033833;28;19916;-61
2020/12/11 00:24:58;;;;;;;;;;;27.00;42.50;;;;;;5033509;28;19913;-61
2020/12/11 00:27:23;;;;;;;;;;;27.00;42.50;;;;;;5034012;28;19909;-59
2020/12/11 00:29:49;;;;;;;;;;;27.00;42.40;;;;;;5033639;28;19916;-60
2020/12/11 00:32:14;;;;;;;;;;;27.00;42.30;;;;;;5032974;28;19929;-61
2020/12/11 00:34:39;;;;;;;;;;;27.00;42.30;;;;;;5033755;28;19913;-59
2020/12/11 00:37:05;;;;;;;;;;;27.00;42.40;;;;;;5033530;28;19920;-62
2020/12/11 00:39:30;;;;;;;;;;;27.00;42.20;;;;;;5033490;28;19913;-60
2020/12/11 00:41:56;;;;;;;;;;;27.10;42.20;;;;;;5033583;28;19920;-62
2020/12/11 00:44:21;;;;;;;;;;;27.00;42.10;;;;;;5033719;28;20314;-61
2020/12/11 00:46:47;;;;;;;;;;;27.00;42.20;;;;;;5033127;28;19909;-61
2020/12/11 00:49:12;;;;;;;;;;;27.00;42.30;;;;;;5033316;28;20318;-62
2020/12/11 00:51:38;;;;;;;;;;;27.10;42.30;;;;;;5033377;28;19924;-62
2020/12/11 00:54:03;;;;;;;;;;;27.10;42.20;;;;;;5033435;28;20321;-65
2020/12/11 00:56:29;;;;;;;;;;;27.10;42.30;;;;;;5033188;28;19916;-65
2020/12/11 00:58:54;;;;;;;;;;;27.10;42.20;;;;;;5033216;28;19920;-65
2020/12/11 01:01:20;;;;;;;;;;;27.10;42.30;;;;;;5033465;28;20003;-65
2020/12/11 01:03:45;;;;;;;;;;;27.10;42.20;;;;;;5033154;28;19913;-61
2020/12/11 01:06:11;;;;;;;;;;;27.10;42.20;;;;;;5033425;28;19916;-62
2020/12/11 01:08:36;;;;;;;;;;;27.10;42.20;;;;;;5033284;28;19935;-62
2020/12/11 01:11:02;;;;;;;;;;;27.10;42.00;;;;;;5032978;28;19970;-61
2020/12/11 01:13:27;;;;;;;;;;;27.10;42.10;;;;;;5032970;28;19913;-62
2020/12/11 01:15:52;;;;;;;;;;;27.00;42.00;;;;;;5033391;28;19916;-61
2020/12/11 01:18:18;;;;;;;;;;;27.00;42.10;;;;;;5032738;28;19990;-59
2020/12/11 01:20:43;;;;;;;;;;;27.00;42.40;;;;;;5032993;28;20359;-61
2020/12/11 01:23:09;;;;;;;;;;;26.90;42.70;;;;;;5033186;28;19909;-60
2020/12/11 01:25:34;;;;;;;;;;;27.00;42.60;;;;;;5032854;28;19913;-60
2020/12/11 01:28:00;;;;;;;;;;;27.00;43.30;;;;;;5033015;28;19909;-56
2020/12/11 01:30:25;;;;;;;;;;;27.00;42.50;;;;;;5032858;28;19909;-60
2020/12/11 01:32:51;;;;;;;;;;;27.00;42.40;;;;;;5032760;28;19947;-55
2020/12/11 01:35:16;;;;;;;;;;;27.00;42.30;;;;;;5032784;28;19987;-55
2020/12/11 01:37:42;;;;;;;;;;;27.00;42.50;;;;;;5032347;28;19971;-60
2020/12/11 01:40:07;;;;;;;;;;;26.90;42.80;;;;;;5013490;28;20016;-60
2020/12/11 01:42:33;;;;;;;;;;;26.90;42.40;;;;;;5019114;28;19909;-60
2020/12/11 01:44:58;;;;;;;;;;;27.00;42.10;;;;;;5035772;28;19996;-60
2020/12/11 01:47:24;;;;;;;;;;;27.00;41.90;;;;;;5037009;28;20367;-61
2020/12/11 01:49:50;;;;;;;;;;;27.00;41.80;;;;;;5036740;28;20291;-60
2020/12/11 01:52:16;;;;;;;;;;;27.00;41.70;;;;;;5036197;28;19975;-60
2020/12/11 01:54:42;;;;;;;;;;;27.00;41.70;;;;;;5036650;28;19909;-61
2020/12/11 01:57:10;;;;;;;;;;;27.00;41.60;;;;;;5036211;28;20295;-60
2020/12/11 01:59:36;;;;;;;;;;;27.00;41.50;;;;;;5033142;28;19920;-60
2020/12/11 02:02:01;;;;;;;;;;;26.90;41.40;;;;;;5036108;28;19913;-60
2020/12/11 02:04:26;;;;;;;;;;;27.00;41.40;;;;;;5035604;28;19952;-59
2020/12/11 02:06:52;;;;;;;;;;;27.00;41.40;;;;;;5036539;28;19991;-60
2020/12/11 02:09:19;;;;;;;;;;;27.00;41.40;;;;;;5036421;28;20010;-60
2020/12/11 02:11:44;;;;;;;;;;;27.00;41.30;;;;;;5036103;28;19921;-59
2020/12/11 02:14:10;;;;;;;;;;;27.00;41.30;;;;;;5018962;28;19920;-61
2020/12/11 02:16:35;;;;;;;;;;;27.00;41.30;;;;;;5017430;28;20271;-61
2020/12/11 02:19:01;;;;;;;;;;;26.90;41.20;;;;;;5036419;28;19956;-61
2020/12/11 02:21:26;;;;;;;;;;;27.00;41.30;;;;;;5036451;28;20373;-61
2020/12/11 02:23:52;;;;;;;;;;;26.90;41.20;;;;;;5036467;28;19909;-61
2020/12/11 02:26:17;;;;;;;;;;;27.00;41.20;;;;;;5036014;28;19921;-60
2020/12/11 02:28:43;;;;;;;;;;;26.90;41.10;;;;;;5036374;28;19971;-61
2020/12/11 02:31:08;;;;;;;;;;;26.90;41.20;;;;;;5035946;28;20432;-61
2020/12/11 02:33:34;;;;;;;;;;;26.90;41.20;;;;;;5035457;28;19968;-61
2020/12/11 02:35:59;;;;;;;;;;;26.90;41.20;;;;;;5035881;28;19909;-61
2020/12/11 02:38:25;;;;;;;;;;;26.90;41.10;;;;;;5036142;28;19967;-61
2020/12/11 02:40:51;;;;;;;;;;;26.90;41.10;;;;;;5035485;28;19967;-60
2020/12/11 02:43:16;;;;;;;;;;;26.90;41.10;;;;;;5035713;28;20306;-61
2020/12/11 02:45:45;;;;;;;;;;;26.80;41.20;;;;;;5036042;28;19909;-61
2020/12/11 02:48:11;;;;;;;;;;;26.80;41.20;;;;;;5035662;28;19909;-60
2020/12/11 02:50:37;;;;;;;;;;;26.80;41.10;;;;;;5035775;28;19909;-61
2020/12/11 02:53:02;;;;;;;;;;;26.80;41.10;;;;;;5035829;28;20008;-60
2020/12/11 02:55:28;;;;;;;;;;;26.80;41.10;;;;;;5034487;28;20678;-60
2020/12/11 02:57:53;;;;;;;;;;;26.80;41.00;;;;;;5035497;28;19920;-60
2020/12/11 03:00:18;;;;;;;;;;;26.90;41.00;;;;;;5035760;28;20048;-60
2020/12/11 03:02:44;;;;;;;;;;;26.80;41.00;;;;;;5035393;28;20275;-61
2020/12/11 03:05:09;;;;;;;;;;;26.80;41.00;;;;;;5035685;28;19994;-61
2020/12/11 03:07:35;;;;;;;;;;;26.90;40.90;;;;;;5034774;28;20363;-61
2020/12/11 03:10:00;;;;;;;;;;;26.90;41.00;;;;;;5035012;28;20007;-62
2020/12/11 03:12:26;;;;;;;;;;;26.90;40.90;;;;;;5035470;28;19924;-60
2020/12/11 03:14:51;;;;;;;;;;;26.80;40.90;;;;;;5035383;28;20377;-60
2020/12/11 03:17:17;;;;;;;;;;;26.80;40.90;;;;;;5035072;28;19958;-60
2020/12/11 03:19:42;;;;;;;;;;;26.80;40.80;;;;;;5035309;28;19909;-61
2020/12/11 03:22:07;;;;;;;;;;;26.80;40.80;;;;;;5034826;28;20428;-61
2020/12/11 03:24:33;;;;;;;;;;;26.80;40.90;;;;;;5034915;28;19915;-61
2020/12/11 03:26:58;;;;;;;;;;;26.80;40.80;;;;;;5035223;28;19916;-61
2020/12/11 03:29:24;;;;;;;;;;;26.80;40.80;;;;;;5035232;28;20340;-61
2020/12/11 03:31:49;;;;;;;;;;;26.80;40.90;;;;;;5035130;28;19921;-60
2020/12/11 03:34:15;;;;;;;;;;;26.80;40.80;;;;;;5034859;28;19913;-61
2020/12/11 03:36:40;;;;;;;;;;;26.70;40.70;;;;;;5034762;28;20051;-61
2020/12/11 03:39:06;;;;;;;;;;;26.70;40.70;;;;;;5034753;28;19916;-61
2020/12/11 03:41:31;;;;;;;;;;;26.70;40.80;;;;;;5034633;28;19955;-61
2020/12/11 03:43:57;;;;;;;;;;;26.80;40.80;;;;;;5034855;28;20025;-61
2020/12/11 03:46:22;;;;;;;;;;;26.70;40.70;;;;;;5034617;28;19913;-61
2020/12/11 03:48:48;;;;;;;;;;;26.70;40.80;;;;;;5034541;28;19909;-61
2020/12/11 03:51:17;;;;;;;;;;;26.80;40.70;;;;;;5034521;28;19916;-60
2020/12/11 03:53:43;;;;;;;;;;;26.70;40.70;;;;;;5034438;28;19909;-61
2020/12/11 03:56:08;;;;;;;;;;;26.80;40.60;;;;;;5034335;28;19916;-61
2020/12/11 03:58:34;;;;;;;;;;;26.70;40.50;;;;;;5034585;28;19916;-61
2020/12/11 04:00:59;;;;;;;;;;;26.80;40.60;;;;;;5034188;28;20425;-61
2020/12/11 04:03:25;;;;;;;;;;;26.80;40.50;;;;;;5034281;28;19917;-60
2020/12/11 04:05:50;;;;;;;;;;;26.80;40.50;;;;;;5034251;28;19967;-61
2020/12/11 04:08:16;;;;;;;;;;;26.80;40.50;;;;;;5034435;28;20004;-61
2020/12/11 04:10:41;;;;;;;;;;;26.80;40.50;;;;;;5034112;28;19921;-60
2020/12/11 04:13:06;;;;;;;;;;;26.80;40.40;;;;;;5034025;28;19917;-61
2020/12/11 04:15:32;;;;;;;;;;;26.80;40.40;;;;;;5033888;28;19913;-60
2020/12/11 04:17:57;;;;;;;;;;;26.80;40.40;;;;;;5034103;28;20260;-60
2020/12/11 04:20:23;;;;;;;;;;;26.70;40.30;;;;;;5033885;28;19909;-60
2020/12/11 04:22:48;;;;;;;;;;;26.70;40.50;;;;;;5033958;28;19909;-60
2020/12/11 04:25:14;;;;;;;;;;;26.70;40.30;;;;;;5033845;28;19909;-61
2020/12/11 04:27:39;;;;;;;;;;;26.70;40.30;;;;;;5033995;28;19913;-61
2020/12/11 04:30:05;;;;;;;;;;;26.70;40.40;;;;;;5033822;28;19925;-61
2020/12/11 04:32:30;;;;;;;;;;;26.70;40.30;;;;;;5033649;28;19921;-61
2020/12/11 04:34:56;;;;;;;;;;;26.70;40.40;;;;;;5034030;28;19967;-61
2020/12/11 04:37:21;;;;;;;;;;;26.70;40.50;;;;;;5033899;28;20278;-61
2020/12/11 04:39:46;;;;;;;;;;;26.70;40.40;;;;;;5033519;28;19955;-61
2020/12/11 04:42:12;;;;;;;;;;;26.70;40.40;;;;;;5033880;28;19915;-61
2020/12/11 04:44:38;;;;;;;;;;;26.70;40.30;;;;;;5033596;28;19975;-61
2020/12/11 04:47:05;;;;;;;;;;;26.70;40.30;;;;;;5033343;28;20334;-60
2020/12/11 04:49:30;;;;;;;;;;;26.70;40.30;;;;;;5033743;28;19909;-60
2020/12/11 04:51:56;;;;;;;;;;;26.70;40.30;;;;;;5032271;28;20385;-61
2020/12/11 04:54:21;;;;;;;;;;;26.70;40.30;;;;;;5033317;28;19909;-61
2020/12/11 04:56:48;;;;;;;;;;;26.70;40.20;;;;;;5033568;28;19909;-61
2020/12/11 04:59:14;;;;;;;;;;;26.70;40.30;;;;;;5033283;28;19910;-61
2020/12/11 05:01:39;;;;;;;;;;;26.70;40.20;;;;;;5033579;28;19914;-60
2020/12/11 05:04:05;;;;;;;;;;;26.70;40.10;;;;;;5033184;28;19920;-61
2020/12/11 05:06:30;;;;;;;;;;;26.70;40.20;;;;;;5033419;28;19913;-60
2020/12/11 05:09:12;;;;;;;;;;;26.70;40.30;;;;;;5032841;28;19913;-61
2020/12/11 05:11:37;;;;;;;;;;;26.70;40.20;;;;;;5032997;28;19921;-61
2020/12/11 05:14:03;;;;;;;;;;;26.70;40.20;;;;;;5033381;28;20275;-60
2020/12/11 05:16:28;;;;;;;;;;;26.60;40.20;;;;;;5033329;28;19909;-60
2020/12/11 05:19:04;;;;;;;;;;;26.60;40.20;;;;;;5032946;28;19909;-61
2020/12/11 05:21:30;;;;;;;;;;;26.70;40.20;;;;;;5033180;28;19909;-61
2020/12/11 05:24:02;;;;;;;;;;;26.70;40.20;;;;;;5031509;28;20011;-60
2020/12/11 05:26:31;;;;;;;;;;;26.70;40.10;;;;;;5033238;28;19913;-61
2020/12/11 05:28:56;;;;;;;;;;;26.70;40.10;;;;;;5033077;28;19909;-60
2020/12/11 05:31:22;;;;;;;;;;;26.60;40.10;;;;;;5033132;28;20378;-60
2020/12/11 05:34:04;;;;;;;;;;;26.70;40.10;;;;;;5032870;28;19909;-61
2020/12/11 05:36:42;;;;;;;;;;;26.60;40.00;;;;;;5033001;28;19909;-60
2020/12/11 05:39:07;;;;;;;;;;;26.60;40.10;;;;;;5032550;28;20381;-61
2020/12/11 05:41:33;;;;;;;;;;;26.60;40.60;;;;;;5032821;28;19909;-62
2020/12/11 05:43:58;;;;;;;;;;;26.60;40.10;;;;;;5033158;28;19909;-60
2020/12/11 05:46:30;;;;;;;;;;;26.60;40.00;;;;;;5032459;28;20440;-61
2020/12/11 05:49:00;;;;;;;;;;;26.50;40.00;;;;;;5033126;28;19958;-61
2020/12/11 05:51:33;;;;;;;;;;;26.60;40.10;;;;;;5032831;28;20043;-60
2020/12/11 05:54:00;;;;;;;;;;;26.70;40.00;;;;;;5032842;28;19921;-61
2020/12/11 05:56:26;;;;;;;;;;;26.60;39.90;;;;;;5032942;28;19913;-61
2020/12/11 05:58:51;;;;;;;;;;;26.70;39.90;;;;;;5031437;28;19916;-61
2020/12/11 06:01:17;;;;;;;;;;;26.60;39.90;;;;;;5031849;28;19995;-61
2020/12/11 06:03:43;;;;;;;;;;;26.60;39.80;;;;;;5032640;28;19920;-61
2020/12/11 06:06:08;;;;;;;;;;;26.70;39.70;;;;;;5032840;28;19916;-61
2020/12/11 06:08:33;;;;;;;;;;;26.70;39.70;;;;;;5031442;28;20339;-61
2020/12/11 06:10:59;;;;;;;;;;;26.60;39.80;;;;;;5032373;28;19947;-61
2020/12/11 06:13:38;;;;;;;;;;;26.70;39.80;;;;;;5032428;28;20381;-61
2020/12/11 06:16:04;;;;;;;;;;;26.60;39.80;;;;;;5031615;28;19951;-60
2020/12/11 06:18:29;;;;;;;;;;;26.70;39.90;;;;;;5031467;28;19937;-61
2020/12/11 06:20:54;;;;;;;;;;;26.70;39.70;;;;;;5030893;28;20322;-60
2020/12/11 06:23:23;;;;;;;;;;;26.70;39.70;;;;;;5032481;28;19916;-60
2020/12/11 06:25:55;;;;;;;;;;;26.70;39.70;;;;;;5032679;28;19963;-61
2020/12/11 06:28:40;;;;;;;;;;;26.60;39.70;;;;;;5032707;28;19913;-60
2020/12/11 06:31:06;;;;;;;;;;;26.60;39.70;;;;;;5033456;28;19917;-61
2020/12/11 06:33:32;;;;;;;;;;;26.60;39.80;;;;;;5035876;28;20346;-60
2020/12/11 06:35:58;;;;;;;;;;;26.60;39.60;;;;;;5035867;28;19945;-61
2020/12/11 06:38:42;;;;;;;;;;;26.70;39.70;;;;;;5035910;28;19920;-61
2020/12/11 06:41:08;;;;;;;;;;;26.60;39.60;;;;;;5036127;28;19963;-60
2020/12/11 06:43:45;;;;;;;;;;;26.60;39.60;;;;;;5036115;28;19913;-61
2020/12/11 06:46:20;;;;;;;;;;;26.60;39.60;;;;;;5035209;28;19956;-60
2020/12/11 06:49:04;;;;;;;;;;;26.70;39.70;;;;;;5035928;28;19920;-60
2020/12/11 06:51:30;;;;;;;;;;;26.60;39.60;;;;;;5035903;28;19920;-61
2020/12/11 06:53:55;;;;;;;;;;;26.60;39.60;;;;;;5035601;28;20279;-60
2020/12/11 06:56:40;;;;;;;;;;;26.50;39.70;;;;;;5035568;28;19952;-61
2020/12/11 06:59:24;;;;;;;;;;;26.60;39.60;;;;;;5035433;28;19913;-60
2020/12/11 07:01:53;;;;;;;;;;;26.60;39.60;;;;;;5035718;28;19933;-61
2020/12/11 07:04:18;;;;;;;;;;;26.60;39.60;;;;;;5035730;28;19948;-61
2020/12/11 07:06:50;;;;;;;;;;;26.60;39.60;;;;;;5035471;28;20359;-61
2020/12/11 07:09:16;;;;;;;;;;;26.60;39.60;;;;;;5035182;28;19917;-61
2020/12/11 07:11:44;;;;;;;;;;;26.60;39.60;;;;;;5035029;28;20349;-62
2020/12/11 07:14:10;;;;;;;;;;;26.70;39.70;;;;;;5035414;28;20343;-61
2020/12/11 07:16:39;;;;;;;;;;;26.70;39.60;;;;;;5035439;28;19976;-61
2020/12/11 07:19:05;;;;;;;;;;;26.70;39.50;;;;;;5035413;28;19917;-61
2020/12/11 07:21:31;;;;;;;;;;;26.70;39.40;;;;;;5035085;28;19944;-60
2020/12/11 07:23:56;;;;;;;;;;;26.70;39.40;;;;;;5035143;28;20011;-61
2020/12/11 07:26:22;;;;;;;;;;;26.70;39.50;;;;;;5033693;28;19909;-60
2020/12/11 07:28:47;;;;;;;;;;;26.70;39.40;;;;;;5035151;28;20422;-60
2020/12/11 07:31:13;;;;;;;;;;;26.60;39.40;;;;;;5034245;28;19909;-61
2020/12/11 07:33:38;;;;;;;;;;;26.60;39.50;;;;;;5035169;28;19987;-61
2020/12/11 07:36:04;;;;;;;;;;;26.60;39.40;;;;;;5033683;28;21692;-60
2020/12/11 07:38:29;;;;;;;;;;;26.70;39.30;;;;;;5035064;28;19970;-60
2020/12/11 07:40:55;;;;;;;;;;;26.70;39.30;;;;;;5034676;28;20133;-60
2020/12/11 07:43:21;;;;;;;;;;;26.70;39.30;;;;;;5034497;28;19915;-61
2020/12/11 07:45:47;;;;;;;;;;;26.70;39.30;;;;;;5034771;28;19909;-61
2020/12/11 07:48:12;;;;;;;;;;;26.60;39.30;;;;;;5034735;28;19935;-60
2020/12/11 07:50:38;;;;;;;;;;;26.70;39.40;;;;;;5034638;28;19956;-61
2020/12/11 07:53:07;;;;;;;;;;;26.70;39.30;;;;;;5034197;28;20379;-61
2020/12/11 07:55:33;;;;;;;;;;;26.70;39.20;;;;;;5034393;28;19913;-61
2020/12/11 07:57:58;;;;;;;;;;;26.70;39.20;;;;;;5034622;28;19913;-61
2020/12/11 08:00:24;;;;;;;;;;;26.70;39.30;;;;;;5034351;28;20363;-61
2020/12/11 08:02:52;;;;;;;;;;;26.60;39.20;;;;;;5034467;28;19914;-61
2020/12/11 08:05:18;;;;;;;;;;;26.60;39.30;;;;;;5034553;28;19916;-61
2020/12/11 08:07:46;;;;;;;;;;;26.70;39.20;;;;;;5033780;28;19909;-61
2020/12/11 08:10:13;;;;;;;;;;;26.70;39.30;;;;;;5032509;28;19913;-61
2020/12/11 08:12:39;;;;;;;;;;;26.70;39.30;;;;;;5034340;28;20011;-61
2020/12/11 08:15:05;;;;;;;;;;;26.60;39.20;;;;;;5034303;28;19917;-62
2020/12/11 08:17:31;;;;;;;;;;;26.70;39.10;;;;;;5034110;28;20428;-62
2020/12/11 08:19:58;;;;;;;;;;;26.70;39.10;;;;;;5034036;28;20000;-60
2020/12/11 08:22:24;;;;;;;;;;;26.70;38.90;;;;;;5033873;28;19909;-60
2020/12/11 08:24:49;;;;;;;;;;;26.70;39.10;;;;;;5032329;28;19917;-61
2020/12/11 08:27:21;;;;;;;;;;;26.70;39.80;;;;;;5033742;28;19913;-61
2020/12/11 08:30:08;;;;;;;;;;;26.70;39.10;;;;;;5034095;28;19994;-61
2020/12/11 08:32:33;;;;;;;;;;;26.60;39.10;;;;;;5033683;28;19917;-61
2020/12/11 08:34:59;;;;;;;;;;;26.60;39.10;;;;;;5033965;28;19916;-60
2020/12/11 08:37:24;;;;;;;;;;;26.60;39.20;;;;;;5033518;28;20323;-60
2020/12/11 08:39:50;;;;;;;;;;;26.70;39.10;;;;;;5033350;28;20015;-61
2020/12/11 08:42:43;;;;;;;;;;;26.70;39.10;;;;;;5033739;28;19970;-61
2020/12/11 08:50:13;;;;;;;;;;;26.70;39.00;;;;;;5033806;28;19952;-61
2020/12/11 08:52:39;;;;;;;;;;;26.70;39.00;;;;;;5033523;28;19940;-61
2020/12/11 08:55:04;;;;;;;;;;;26.80;38.90;;;;;;5032834;28;20355;-60
2020/12/11 08:57:32;;;;;;;;;;;26.70;38.90;;;;;;5033372;28;19909;-60
2020/12/11 08:59:58;;;;;;;;;;;26.70;38.90;;;;;;5033001;28;19909;-60
2020/12/11 09:02:23;;;;;;;;;;;26.70;39.00;;;;;;5033177;28;20004;-62
2020/12/11 09:04:49;;;;;;;;;;;26.70;38.90;;;;;;5033555;28;19915;-61
2020/12/11 09:07:14;;;;;;;;;;;26.70;39.00;;;;;;5033490;28;19909;-60
2020/12/11 09:09:40;;;;;;;;;;;26.70;39.00;;;;;;5033292;28;19913;-61
2020/12/11 09:12:05;;;;;;;;;;;26.70;39.00;;;;;;5032957;28;19982;-60
2020/12/11 09:14:33;;;;;;;;;;;26.60;39.00;;;;;;5032442;28;21363;-61
2020/12/11 09:16:59;;;;;;;;;;;26.70;39.00;;;;;;5032805;28;20335;-60
2020/12/11 09:19:24;;;;;;;;;;;26.70;39.50;;;;;;5033183;28;19909;-61
2020/12/11 09:21:50;;;;;;;;;;;26.70;38.90;;;;;;5033320;28;19932;-61
2020/12/11 09:24:15;;;;;;;;;;;26.70;38.90;;;;;;5032918;28;19920;-61
2020/12/11 09:26:41;;;;;;;;;;;26.70;38.80;;;;;;5032946;28;20022;-61
2020/12/11 09:29:15;;;;;;;;;;;26.70;38.80;;;;;;5032971;28;19916;-62
2020/12/11 09:31:45;;;;;;;;;;;26.70;38.80;;;;;;5032631;28;20027;-62
2020/12/11 09:34:10;;;;;;;;;;;26.70;38.90;;;;;;5033054;28;19995;-62
2020/12/11 09:36:36;;;;;;;;;;;26.70;38.80;;;;;;5032940;28;20421;-62
2020/12/11 09:39:02;;;;;;;;;;;26.70;38.80;;;;;;5031578;28;19913;-62
2020/12/11 09:41:32;;;;;;;;;;;26.70;38.70;;;;;;5033155;28;19913;-62
2020/12/11 09:44:16;;;;;;;;;;;26.70;38.80;;;;;;5033074;28;20289;-61
2020/12/11 09:46:58;;;;;;;;;;;26.70;38.70;;;;;;5013417;28;19917;-61
2020/12/11 09:49:37;;;;;;;;;;;26.60;38.70;;;;;;5013388;28;19909;-62
2020/12/11 09:52:57;;;;;;;;;;;26.70;38.80;;;;;;5013029;28;19924;-61
2020/12/11 09:54:49;;;;;;;;;;;26.60;38.80;;;;;;5015677;28;19910;-62
2020/12/11 09:57:14;;;;;;;;;;;26.60;38.90;;;;;;5012830;28;20004;-61
2020/12/11 09:59:51;;;;;;;;;;;26.70;38.80;;;;;;5019757;28;19917;-62
2020/12/11 10:04:51;;;;;;;;;;;26.70;38.70;;;;;;5033384;28;20024;-61
2020/12/11 10:07:17;;;;;;;;;;;26.70;38.80;;;;;;5036323;28;19944;-61
2020/12/11 10:09:42;;;;;;;;;;;26.60;38.80;;;;;;5036357;28;19920;-62
2020/12/11 10:12:08;;;;;;;;;;;26.60;38.70;;;;;;5036109;28;19928;-60
2020/12/11 10:14:39;;;;;;;;;;;26.70;38.70;;;;;;5036299;28;20008;-61
2020/12/11 10:17:05;;;;;;;;;;;26.60;38.70;;;;;;5036468;28;19909;-61
2020/12/11 10:19:30;;;;;;;;;;;26.60;38.70;;;;;;5035925;28;19963;-61
2020/12/11 10:21:56;;;;;;;;;;;26.60;38.90;;;;;;5036442;28;19919;-61
2020/12/11 10:24:22;;;;;;;;;;;26.50;38.90;;;;;;5036332;28;19909;-61
2020/12/11 10:26:47;;;;;;;;;;;26.60;39.50;;;;;;5036285;28;19913;-61
2020/12/11 10:29:13;;;;;;;;;;;26.60;39.00;;;;;;5036277;28;20375;-61
2020/12/11 10:31:44;;;;;;;;;;;26.60;38.80;;;;;;5035896;28;19986;-61
2020/12/11 10:34:13;;;;;;;;;;;26.70;38.70;;;;;;5035698;28;20004;-61
2020/12/11 10:36:38;;;;;;;;;;;26.70;38.70;;;;;;5035811;28;19917;-61
2020/12/11 10:39:04;;;;;;;;;;;26.70;38.70;;;;;;5036185;28;19909;-61
2020/12/11 10:41:30;;;;;;;;;;;26.70;38.70;;;;;;5036149;28;20374;-61
2020/12/11 10:43:55;;;;;;;;;;;26.70;38.70;;;;;;5036063;28;19952;-60
2020/12/11 10:46:20;;;;;;;;;;;26.60;38.70;;;;;;5035675;28;20260;-61
2020/12/11 10:48:46;;;;;;;;;;;26.60;38.70;;;;;;5035917;28;19909;-60
2020/12/11 10:51:12;;;;;;;;;;;26.70;38.60;;;;;;5035505;28;20402;-61
2020/12/11 10:53:37;;;;;;;;;;;26.70;38.70;;;;;;5035449;28;19917;-60
2020/12/11 10:56:06;;;;;;;;;;;26.60;38.60;;;;;;5035803;28;19913;-60
2020/12/11 10:58:32;;;;;;;;;;;26.60;38.60;;;;;;5035409;28;19909;-61
2020/12/11 11:00:57;;;;;;;;;;;26.60;38.60;;;;;;5035160;28;19920;-61
2020/12/11 11:03:23;;;;;;;;;;;26.60;38.70;;;;;;5035675;28;20386;-61
2020/12/11 11:05:49;;;;;;;;;;;26.60;38.60;;;;;;5035624;28;19936;-61
2020/12/11 11:08:17;;;;;;;;;;;26.60;38.60;;;;;;5035476;28;19953;-61
2020/12/11 11:10:48;;;;;;;;;;;26.60;38.60;;;;;;5034770;28;19975;-61
2020/12/11 11:21:19;;;;;;;;;;;26.60;38.60;;;;;;5041681;28;19917;-61
2020/12/11 11:26:32;;;;;;;;;;;26.60;38.70;;;;;;5029413;28;19909;-60
2020/12/11 11:28:58;;;;;;;;;;;26.60;38.60;;;;;;5015483;28;19988;-61
2020/12/11 11:31:24;;;;;;;;;;;26.60;38.60;;;;;;5030024;28;19955;-49
2020/12/11 11:33:49;;;;;;;;;;;26.50;38.80;;;;;;5034056;28;19956;-54
2020/12/11 11:36:15;;;;;;;;;;;26.50;38.80;;;;;;5032824;28;19975;-54
2020/12/11 11:38:40;;;;;;;;;;;26.60;38.90;;;;;;5030481;28;20286;-55
2020/12/11 11:41:06;;;;;;;;;;;26.60;38.80;;;;;;5029897;28;20019;-52
2020/12/11 11:43:55;;;;;;;;;;;26.70;38.70;;;;;;5030142;28;19952;-53
2020/12/11 11:46:20;;;;;;;;;;;26.70;38.50;;;;;;5030782;28;20313;-55
2020/12/11 11:48:46;;;;;;;;;;;26.70;38.50;;;;;;5030277;28;19917;-53
2020/12/11 11:51:27;;;;;;;;;;;26.60;38.50;;;;;;5030562;28;19913;-55
2020/12/11 11:53:53;;;;;;;;;;;26.70;38.40;;;;;;5030015;28;19964;-51
2020/12/11 11:56:18;;;;;;;;;;;26.60;37.70;;;;;;5029626;28;20002;-54
2020/12/11 11:58:46;;;;;;;;;;;26.60;38.00;;;;;;5030054;28;19917;-53
2020/12/11 12:01:11;;;;;;;;;;;26.60;37.90;;;;;;5030281;28;20264;-59
2020/12/11 12:03:37;;;;;;;;;;;26.50;38.00;;;;;;5029579;28;19936;-56
2020/12/11 12:06:05;;;;;;;;;;;26.30;38.20;;;;;;5029874;28;19956;-54
2020/12/11 12:08:30;;;;;;;;;;;26.30;38.40;;;;;;5029171;28;19921;-54
2020/12/11 12:10:56;;;;;;;;;;;26.30;38.70;;;;;;5029561;28;19936;-55
2020/12/11 12:13:21;;;;;;;;;;;26.30;38.70;;;;;;5029418;28;20330;-53
2020/12/11 12:15:48;;;;;;;;;;;26.20;38.80;;;;;;5030268;28;19921;-53
2020/12/11 12:18:15;;;;;;;;;;;26.30;38.40;;;;;;5028920;28;20367;-51
2020/12/11 12:20:57;;;;;;;;;;;26.40;38.20;;;;;;5030210;28;19921;-54
2020/12/11 12:28:53;;;;;;;;;;;26.40;38.00;;;;;;5028407;28;19923;-55
2020/12/11 12:31:24;;;;;;;;;;;26.40;37.90;;;;;;5030454;28;19959;-56
2020/12/11 12:39:50;;;;;;;;;;;26.40;37.80;;;;;;5028956;28;20008;-54
2020/12/11 12:44:32;;;;;;;;;;;26.40;37.80;;;;;;5029352;28;21264;-55
2020/12/11 12:46:57;;;;;;;;;;;26.30;38.10;;;;;;5029233;28;20352;-57
2020/12/11 12:49:23;;;;;;;;;;;21.90;27.40;;;;;;5028377;28;19998;-51
2020/12/11 12:51:48;;;;;;;;;;;20.30;29.00;;;;;;5029260;28;19929;-52
2020/12/11 12:54:14;;;;;;;;;;;20.90;34.10;;;;;;5028506;28;19921;-52
2020/12/11 12:56:48;;;;;;;;;;;21.90;39.20;;;;;;5028589;28;19920;-53
2020/12/11 13:06:55;;;;;;;;;;;25.10;51.70;;;;;;5028604;28;19928;-57
2020/12/11 13:09:20;;;;;;;;;;;25.40;51.30;;;;;;5028335;28;20387;-58
2020/12/11 13:11:49;;;;;;;;;;;25.60;50.70;;;;;;5027980;28;19929;-57
2020/12/11 13:14:14;;;;;;;;;;;25.70;50.40;;;;;;5028819;28;19927;-57
2020/12/11 13:16:40;;;;;;;;;;;25.90;49.80;;;;;;5028696;28;19921;-59
2020/12/11 13:19:06;;;;;;;;;;;25.90;50.00;;;;;;5028740;28;19920;-60
2020/12/11 13:21:36;;;;;;;;;;;26.00;49.20;;;;;;5028233;28;19968;-59
2020/12/11 13:26:49;;;;;;;;;;;26.00;48.80;;;;;;5013237;28;19920;-57
2020/12/11 13:29:15;;;;;;;;;;;26.00;48.50;;;;;;5029658;28;19916;-58
2020/12/11 13:31:41;;;;;;;;;;;25.90;48.80;;;;;;5029427;28;19921;-58
2020/12/11 13:34:07;;;;;;;;;;;26.00;47.90;;;;;;5029134;28;20329;-57
2020/12/11 13:36:32;;;;;;;;;;;26.00;47.80;;;;;;5028132;28;19913;-59
2020/12/11 13:38:58;;;;;;;;;;;26.00;47.50;;;;;;5028172;28;19928;-57
2020/12/11 13:41:23;;;;;;;;;;;26.10;47.30;;;;;;5031693;28;19956;-58
2020/12/11 13:43:48;;;;;;;;;;;26.10;47.00;;;;;;5032809;28;20378;-59
2020/12/11 13:46:14;;;;;;;;;;;26.00;46.80;;;;;;5032037;28;20039;-56
2020/12/11 13:48:39;;;;;;;;;;;26.00;46.50;;;;;;5032085;28;19917;-59
2020/12/11 13:51:05;;;;;;;;;;;26.00;46.20;;;;;;5032567;28;20063;-57
2020/12/11 13:53:31;;;;;;;;;;;26.10;46.00;;;;;;5032631;28;19936;-57
2020/12/11 13:55:57;;;;;;;;;;;26.10;45.60;;;;;;5031851;28;20283;-57
2020/12/11 13:58:22;;;;;;;;;;;26.10;45.30;;;;;;5032001;28;19913;-58
2020/12/11 14:00:48;;;;;;;;;;;26.10;45.20;;;;;;5031956;28;20050;-57
2020/12/11 14:03:13;;;;;;;;;;;26.20;45.00;;;;;;5031908;28;19920;-57
2020/12/11 14:05:39;;;;;;;;;;;26.20;44.90;;;;;;5032218;28;20363;-57
2020/12/11 14:08:04;;;;;;;;;;;26.20;44.80;;;;;;5031684;28;19917;-59
2020/12/11 14:10:30;;;;;;;;;;;26.20;44.80;;;;;;5031388;28;19917;-55
2020/12/11 14:12:55;;;;;;;;;;;26.10;44.60;;;;;;5031651;28;19935;-57
2020/12/11 14:15:21;;;;;;;;;;;26.20;44.60;;;;;;5031403;28;19920;-55
2020/12/11 14:18:14;;;;;;;;;;;26.20;44.40;;;;;;5031677;28;20008;-59
2020/12/11 14:20:42;;;;;;;;;;;26.10;44.40;;;;;;5031634;28;19921;-56
2020/12/11 14:23:10;;;;;;;;;;;26.10;44.30;;;;;;5031438;28;19993;-58
2020/12/11 14:25:36;;;;;;;;;;;26.10;44.30;;;;;;5031566;28;20004;-59
2020/12/11 14:28:01;;;;;;;;;;;26.10;44.30;;;;;;5031061;28;20028;-59
2020/12/11 14:30:27;;;;;;;;;;;26.10;44.30;;;;;;5031890;28;19996;-59
2020/12/11 14:32:52;;;;;;;;;;;26.00;44.20;;;;;;5031780;28;20012;-59
2020/12/11 14:35:19;;;;;;;;;;;26.00;44.10;;;;;;5031822;28;20371;-55
2020/12/11 14:37:45;;;;;;;;;;;26.10;44.10;;;;;;5030831;28;19987;-53
2020/12/11 14:40:11;;;;;;;;;;;26.10;43.90;;;;;;5030977;28;19914;-57
2020/12/11 14:42:36;;;;;;;;;;;26.10;43.90;;;;;;5031129;28;19914;-56
2020/12/11 14:45:02;;;;;;;;;;;26.10;43.80;;;;;;5031180;28;20739;-57
2020/12/11 14:47:30;;;;;;;;;;;26.10;44.70;;;;;;5031271;28;19928;-59
2020/12/11 14:49:56;;;;;;;;;;;26.10;45.20;;;;;;5031497;28;19913;-58
2020/12/11 14:52:21;;;;;;;;;;;26.20;45.00;;;;;;5030015;28;19927;-58
2020/12/11 14:54:46;;;;;;;;;;;26.10;44.80;;;;;;5031271;28;19921;-59
2020/12/11 14:57:12;;;;;;;;;;;26.20;44.70;;;;;;5030863;28;19921;-60